sensor_id;sensor_type;location;lat;lon;timestamp;temperature;humidity
59973;DHT22;55298;-36.624;-64.282;2023-02-28T00:01:32;28.10;25.90
59973;DHT22;55298;-36.624;-64.282;2023-02-28T00:04:01;28.00;25.80
59973;DHT22;55298;-36.624;-64.282;2023-02-28T00:06:29;28.00;26.60
59973;DHT22;55298;-36.624;-64.282;2023-02-28T00:08:57;27.90;26.70
59973;DHT22;55298;-36.624;-64.282;2023-02-28T00:11:26;27.80;27.00
59973;DHT22;55298;-36.624;-64.282;2023-02-28T00:13:54;27.80;27.00
59973;DHT22;55298;-36.624;-64.282;2023-02-28T00:16:23;27.70;27.30
59973;DHT22;55298;-36.624;-64.282;2023-02-28T00:18:51;27.60;27.30
59973;DHT22;55298;-36.624;-64.282;2023-02-28T00:21:20;27.60;27.40
59973;DHT22;55298;-36.624;-64.282;2023-02-28T00:23:48;27.60;27.50
59973;DHT22;55298;-36.624;-64.282;2023-02-28T00:26:16;27.50;27.80
59973;DHT22;55298;-36.624;-64.282;2023-02-28T00:28:43;27.50;27.90
59973;DHT22;55298;-36.624;-64.282;2023-02-28T00:31:11;27.40;28.00
59973;DHT22;55298;-36.624;-64.282;2023-02-28T00:33:39;27.30;28.00
59973;DHT22;55298;-36.624;-64.282;2023-02-28T00:36:09;27.20;27.90
59973;DHT22;55298;-36.624;-64.282;2023-02-28T00:38:38;27.10;28.20
59973;DHT22;55298;-36.624;-64.282;2023-02-28T00:41:10;27.00;28.30
59973;DHT22;55298;-36.624;-64.282;2023-02-28T00:43:39;26.90;28.10
59973;DHT22;55298;-36.624;-64.282;2023-02-28T00:46:07;26.90;28.40
59973;DHT22;55298;-36.624;-64.282;2023-02-28T00:48:35;26.80;28.50
59973;DHT22;55298;-36.624;-64.282;2023-02-28T00:51:03;26.70;28.60
59973;DHT22;55298;-36.624;-64.282;2023-02-28T00:53:31;26.60;28.70
59973;DHT22;55298;-36.624;-64.282;2023-02-28T00:56:00;26.50;29.00
59973;DHT22;55298;-36.624;-64.282;2023-02-28T00:58:28;26.50;29.20
59973;DHT22;55298;-36.624;-64.282;2023-02-28T01:00:55;26.40;29.40
59973;DHT22;55298;-36.624;-64.282;2023-02-28T01:03:23;26.40;29.40
59973;DHT22;55298;-36.624;-64.282;2023-02-28T01:05:51;26.30;29.70
59973;DHT22;55298;-36.624;-64.282;2023-02-28T01:08:20;26.30;29.70
59973;DHT22;55298;-36.624;-64.282;2023-02-28T01:10:48;26.20;29.70
59973;DHT22;55298;-36.624;-64.282;2023-02-28T01:13:17;26.10;29.70
59973;DHT22;55298;-36.624;-64.282;2023-02-28T01:15:55;26.10;29.90
59973;DHT22;55298;-36.624;-64.282;2023-02-28T01:18:24;26.00;29.80
59973;DHT22;55298;-36.624;-64.282;2023-02-28T01:20:52;26.00;30.00
59973;DHT22;55298;-36.624;-64.282;2023-02-28T01:23:21;25.90;30.00
59973;DHT22;55298;-36.624;-64.282;2023-02-28T01:25:51;25.90;30.00
59973;DHT22;55298;-36.624;-64.282;2023-02-28T01:28:19;25.90;30.10
59973;DHT22;55298;-36.624;-64.282;2023-02-28T01:30:50;25.80;30.00
59973;DHT22;55298;-36.624;-64.282;2023-02-28T01:33:18;25.80;30.20
59973;DHT22;55298;-36.624;-64.282;2023-02-28T01:35:47;25.80;30.30
59973;DHT22;55298;-36.624;-64.282;2023-02-28T01:38:15;25.80;30.10
59973;DHT22;55298;-36.624;-64.282;2023-02-28T01:40:43;25.70;30.30
59973;DHT22;55298;-36.624;-64.282;2023-02-28T01:43:22;25.70;30.50
59973;DHT22;55298;-36.624;-64.282;2023-02-28T01:45:52;25.70;30.50
59973;DHT22;55298;-36.624;-64.282;2023-02-28T01:48:29;25.60;30.60
59973;DHT22;55298;-36.624;-64.282;2023-02-28T01:51:02;25.60;30.50
59973;DHT22;55298;-36.624;-64.282;2023-02-28T01:53:39;25.50;30.70
59973;DHT22;55298;-36.624;-64.282;2023-02-28T01:56:10;25.50;30.70
59973;DHT22;55298;-36.624;-64.282;2023-02-28T01:58:39;25.50;31.00
59973;DHT22;55298;-36.624;-64.282;2023-02-28T02:01:07;25.40;31.00
59973;DHT22;55298;-36.624;-64.282;2023-02-28T02:03:36;25.40;31.30
59973;DHT22;55298;-36.624;-64.282;2023-02-28T02:06:04;25.30;31.20
59973;DHT22;55298;-36.624;-64.282;2023-02-28T02:08:31;25.30;31.40
59973;DHT22;55298;-36.624;-64.282;2023-02-28T02:11:02;25.30;31.20
59973;DHT22;55298;-36.624;-64.282;2023-02-28T02:13:46;25.20;31.40
59973;DHT22;55298;-36.624;-64.282;2023-02-28T02:22:37;25.10;31.70
59973;DHT22;55298;-36.624;-64.282;2023-02-28T02:25:26;25.10;32.00
59973;DHT22;55298;-36.624;-64.282;2023-02-28T02:31:06;25.00;32.40
59973;DHT22;55298;-36.624;-64.282;2023-02-28T02:34:06;24.90;32.50
59973;DHT22;55298;-36.624;-64.282;2023-02-28T02:36:41;24.90;32.40
59973;DHT22;55298;-36.624;-64.282;2023-02-28T02:39:30;24.90;32.80
59973;DHT22;55298;-36.624;-64.282;2023-02-28T02:42:03;24.80;33.00
59973;DHT22;55298;-36.624;-64.282;2023-02-28T02:44:43;24.80;33.30
59973;DHT22;55298;-36.624;-64.282;2023-02-28T02:47:17;24.70;33.40
59973;DHT22;55298;-36.624;-64.282;2023-02-28T02:49:51;24.70;33.50
59973;DHT22;55298;-36.624;-64.282;2023-02-28T02:52:23;24.70;33.80
59973;DHT22;55298;-36.624;-64.282;2023-02-28T02:54:54;24.60;33.90
59973;DHT22;55298;-36.624;-64.282;2023-02-28T02:57:30;24.50;34.00
59973;DHT22;55298;-36.624;-64.282;2023-02-28T03:00:03;24.50;34.20
59973;DHT22;55298;-36.624;-64.282;2023-02-28T03:02:33;24.50;34.30
59973;DHT22;55298;-36.624;-64.282;2023-02-28T03:05:07;24.40;34.60
59973;DHT22;55298;-36.624;-64.282;2023-02-28T03:07:35;24.40;34.60
59973;DHT22;55298;-36.624;-64.282;2023-02-28T03:10:25;24.40;34.90
59973;DHT22;55298;-36.624;-64.282;2023-02-28T03:13:00;24.40;35.00
59973;DHT22;55298;-36.624;-64.282;2023-02-28T03:15:41;24.30;35.10
59973;DHT22;55298;-36.624;-64.282;2023-02-28T03:18:24;24.30;35.30
59973;DHT22;55298;-36.624;-64.282;2023-02-28T03:21:16;24.30;35.50
59973;DHT22;55298;-36.624;-64.282;2023-02-28T03:24:02;24.20;35.50
59973;DHT22;55298;-36.624;-64.282;2023-02-28T03:26:32;24.30;35.60
59973;DHT22;55298;-36.624;-64.282;2023-02-28T03:29:14;24.20;35.80
59973;DHT22;55298;-36.624;-64.282;2023-02-28T03:31:50;24.20;35.80
59973;DHT22;55298;-36.624;-64.282;2023-02-28T03:34:29;24.20;36.00
59973;DHT22;55298;-36.624;-64.282;2023-02-28T03:37:07;24.20;36.20
59973;DHT22;55298;-36.624;-64.282;2023-02-28T03:39:51;24.20;36.20
59973;DHT22;55298;-36.624;-64.282;2023-02-28T03:42:25;24.10;36.20
59973;DHT22;55298;-36.624;-64.282;2023-02-28T03:45:10;24.10;36.20
59973;DHT22;55298;-36.624;-64.282;2023-02-28T03:47:49;24.10;36.30
59973;DHT22;55298;-36.624;-64.282;2023-02-28T03:50:49;24.00;36.20
59973;DHT22;55298;-36.624;-64.282;2023-02-28T03:56:15;24.00;36.30
59973;DHT22;55298;-36.624;-64.282;2023-02-28T03:58:47;24.00;36.40
59973;DHT22;55298;-36.624;-64.282;2023-02-28T04:01:24;24.00;36.30
59973;DHT22;55298;-36.624;-64.282;2023-02-28T04:03:53;24.00;36.60
59973;DHT22;55298;-36.624;-64.282;2023-02-28T04:06:23;24.00;36.60
59973;DHT22;55298;-36.624;-64.282;2023-02-28T04:08:52;24.00;36.60
59973;DHT22;55298;-36.624;-64.282;2023-02-28T04:11:24;24.00;36.70
59973;DHT22;55298;-36.624;-64.282;2023-02-28T04:13:53;24.00;36.80
59973;DHT22;55298;-36.624;-64.282;2023-02-28T04:16:21;24.00;36.80
59973;DHT22;55298;-36.624;-64.282;2023-02-28T04:18:49;23.90;36.90
59973;DHT22;55298;-36.624;-64.282;2023-02-28T04:21:16;23.90;36.90
59973;DHT22;55298;-36.624;-64.282;2023-02-28T04:23:47;23.90;37.30
59973;DHT22;55298;-36.624;-64.282;2023-02-28T04:26:15;23.90;36.90
59973;DHT22;55298;-36.624;-64.282;2023-02-28T04:28:42;23.90;36.80
59973;DHT22;55298;-36.624;-64.282;2023-02-28T04:31:10;23.80;37.00
59973;DHT22;55298;-36.624;-64.282;2023-02-28T04:33:39;23.80;36.70
59973;DHT22;55298;-36.624;-64.282;2023-02-28T04:36:08;23.80;37.10
59973;DHT22;55298;-36.624;-64.282;2023-02-28T04:38:37;23.80;37.20
59973;DHT22;55298;-36.624;-64.282;2023-02-28T04:41:05;23.80;37.20
59973;DHT22;55298;-36.624;-64.282;2023-02-28T04:43:33;23.80;37.10
59973;DHT22;55298;-36.624;-64.282;2023-02-28T04:46:03;23.80;37.00
59973;DHT22;55298;-36.624;-64.282;2023-02-28T04:48:34;23.80;37.00
59973;DHT22;55298;-36.624;-64.282;2023-02-28T04:51:04;23.80;37.00
59973;DHT22;55298;-36.624;-64.282;2023-02-28T04:53:33;23.80;37.00
59973;DHT22;55298;-36.624;-64.282;2023-02-28T04:56:01;23.70;37.00
59973;DHT22;55298;-36.624;-64.282;2023-02-28T04:58:29;23.70;37.00
59973;DHT22;55298;-36.624;-64.282;2023-02-28T05:01:04;23.70;37.00
59973;DHT22;55298;-36.624;-64.282;2023-02-28T05:03:40;23.70;37.10
59973;DHT22;55298;-36.624;-64.282;2023-02-28T05:06:09;23.70;37.20
59973;DHT22;55298;-36.624;-64.282;2023-02-28T05:08:37;23.70;37.20
59973;DHT22;55298;-36.624;-64.282;2023-02-28T05:11:15;23.60;37.40
59973;DHT22;55298;-36.624;-64.282;2023-02-28T05:13:45;23.60;37.40
59973;DHT22;55298;-36.624;-64.282;2023-02-28T05:16:13;23.50;37.50
59973;DHT22;55298;-36.624;-64.282;2023-02-28T05:18:41;23.50;37.60
59973;DHT22;55298;-36.624;-64.282;2023-02-28T05:21:23;23.40;37.70
59973;DHT22;55298;-36.624;-64.282;2023-02-28T05:23:52;23.30;38.00
59973;DHT22;55298;-36.624;-64.282;2023-02-28T05:26:20;23.30;38.20
59973;DHT22;55298;-36.624;-64.282;2023-02-28T05:28:48;23.20;38.40
59973;DHT22;55298;-36.624;-64.282;2023-02-28T05:31:16;23.10;38.40
59973;DHT22;55298;-36.624;-64.282;2023-02-28T05:33:43;23.10;38.80
59973;DHT22;55298;-36.624;-64.282;2023-02-28T05:36:11;23.00;39.00
59973;DHT22;55298;-36.624;-64.282;2023-02-28T05:38:39;22.90;39.20
59973;DHT22;55298;-36.624;-64.282;2023-02-28T05:41:09;22.80;39.40
59973;DHT22;55298;-36.624;-64.282;2023-02-28T05:43:37;22.80;39.50
59973;DHT22;55298;-36.624;-64.282;2023-02-28T05:46:07;22.80;39.70
59973;DHT22;55298;-36.624;-64.282;2023-02-28T05:48:36;22.80;39.90
59973;DHT22;55298;-36.624;-64.282;2023-02-28T05:51:05;22.80;39.90
59973;DHT22;55298;-36.624;-64.282;2023-02-28T05:53:33;22.70;39.90
59973;DHT22;55298;-36.624;-64.282;2023-02-28T05:56:01;22.70;40.10
59973;DHT22;55298;-36.624;-64.282;2023-02-28T05:58:29;22.70;40.30
59973;DHT22;55298;-36.624;-64.282;2023-02-28T06:00:58;22.70;40.30
59973;DHT22;55298;-36.624;-64.282;2023-02-28T06:03:26;22.60;40.50
59973;DHT22;55298;-36.624;-64.282;2023-02-28T06:05:54;22.70;40.60
59973;DHT22;55298;-36.624;-64.282;2023-02-28T06:08:22;22.60;41.00
59973;DHT22;55298;-36.624;-64.282;2023-02-28T06:10:51;22.60;41.00
59973;DHT22;55298;-36.624;-64.282;2023-02-28T06:13:19;22.60;41.20
59973;DHT22;55298;-36.624;-64.282;2023-02-28T06:15:47;22.50;41.50
59973;DHT22;55298;-36.624;-64.282;2023-02-28T06:18:15;22.50;41.80
59973;DHT22;55298;-36.624;-64.282;2023-02-28T06:20:42;22.50;42.30
59973;DHT22;55298;-36.624;-64.282;2023-02-28T06:23:11;22.50;42.50
59973;DHT22;55298;-36.624;-64.282;2023-02-28T06:25:38;22.40;42.70
59973;DHT22;55298;-36.624;-64.282;2023-02-28T06:28:06;22.40;42.90
59973;DHT22;55298;-36.624;-64.282;2023-02-28T06:30:34;22.40;43.20
59973;DHT22;55298;-36.624;-64.282;2023-02-28T06:33:01;22.30;43.70
59973;DHT22;55298;-36.624;-64.282;2023-02-28T06:35:29;22.30;44.50
59973;DHT22;55298;-36.624;-64.282;2023-02-28T06:37:57;22.30;44.10
59973;DHT22;55298;-36.624;-64.282;2023-02-28T06:40:25;22.20;44.30
59973;DHT22;55298;-36.624;-64.282;2023-02-28T06:42:53;22.30;44.60
59973;DHT22;55298;-36.624;-64.282;2023-02-28T06:45:21;22.20;44.70
59973;DHT22;55298;-36.624;-64.282;2023-02-28T06:47:48;22.20;44.80
59973;DHT22;55298;-36.624;-64.282;2023-02-28T06:50:18;22.20;44.90
59973;DHT22;55298;-36.624;-64.282;2023-02-28T06:52:47;22.20;45.00
59973;DHT22;55298;-36.624;-64.282;2023-02-28T06:55:19;22.20;45.50
59973;DHT22;55298;-36.624;-64.282;2023-02-28T06:57:47;22.10;45.60
59973;DHT22;55298;-36.624;-64.282;2023-02-28T07:00:18;22.10;45.60
59973;DHT22;55298;-36.624;-64.282;2023-02-28T07:02:45;22.10;46.40
59973;DHT22;55298;-36.624;-64.282;2023-02-28T07:05:14;22.00;47.00
59973;DHT22;55298;-36.624;-64.282;2023-02-28T07:07:41;22.00;47.00
59973;DHT22;55298;-36.624;-64.282;2023-02-28T07:10:12;22.00;47.50
59973;DHT22;55298;-36.624;-64.282;2023-02-28T07:12:42;22.00;47.80
59973;DHT22;55298;-36.624;-64.282;2023-02-28T07:15:10;21.90;48.00
59973;DHT22;55298;-36.624;-64.282;2023-02-28T07:17:38;21.90;48.20
59973;DHT22;55298;-36.624;-64.282;2023-02-28T07:20:06;21.90;48.40
59973;DHT22;55298;-36.624;-64.282;2023-02-28T07:22:34;21.90;48.40
59973;DHT22;55298;-36.624;-64.282;2023-02-28T07:25:02;21.80;48.40
59973;DHT22;55298;-36.624;-64.282;2023-02-28T07:27:30;21.80;48.50
59973;DHT22;55298;-36.624;-64.282;2023-02-28T07:29:57;21.80;48.50
59973;DHT22;55298;-36.624;-64.282;2023-02-28T07:32:28;21.80;48.60
59973;DHT22;55298;-36.624;-64.282;2023-02-28T07:34:56;21.70;48.90
59973;DHT22;55298;-36.624;-64.282;2023-02-28T07:37:24;21.60;49.10
59973;DHT22;55298;-36.624;-64.282;2023-02-28T07:39:51;21.60;49.10
59973;DHT22;55298;-36.624;-64.282;2023-02-28T07:42:19;21.60;49.30
59973;DHT22;55298;-36.624;-64.282;2023-02-28T07:44:48;21.50;49.80
59973;DHT22;55298;-36.624;-64.282;2023-02-28T07:47:17;21.50;49.80
59973;DHT22;55298;-36.624;-64.282;2023-02-28T07:49:46;21.50;50.00
59973;DHT22;55298;-36.624;-64.282;2023-02-28T07:52:13;21.40;50.10
59973;DHT22;55298;-36.624;-64.282;2023-02-28T07:54:41;21.40;50.10
59973;DHT22;55298;-36.624;-64.282;2023-02-28T07:57:09;21.40;50.80
59973;DHT22;55298;-36.624;-64.282;2023-02-28T07:59:36;21.40;50.70
59973;DHT22;55298;-36.624;-64.282;2023-02-28T08:02:04;21.40;50.70
59973;DHT22;55298;-36.624;-64.282;2023-02-28T08:04:34;21.40;50.50
59973;DHT22;55298;-36.624;-64.282;2023-02-28T08:07:02;21.40;50.70
59973;DHT22;55298;-36.624;-64.282;2023-02-28T08:09:29;21.40;50.70
59973;DHT22;55298;-36.624;-64.282;2023-02-28T08:11:57;21.40;50.70
59973;DHT22;55298;-36.624;-64.282;2023-02-28T08:14:25;21.30;50.80
59973;DHT22;55298;-36.624;-64.282;2023-02-28T08:16:52;21.30;51.00
59973;DHT22;55298;-36.624;-64.282;2023-02-28T08:19:21;21.30;51.10
59973;DHT22;55298;-36.624;-64.282;2023-02-28T08:21:48;21.20;51.20
59973;DHT22;55298;-36.624;-64.282;2023-02-28T08:24:16;21.20;51.40
59973;DHT22;55298;-36.624;-64.282;2023-02-28T08:26:44;21.20;51.60
59973;DHT22;55298;-36.624;-64.282;2023-02-28T08:29:11;21.10;51.90
59973;DHT22;55298;-36.624;-64.282;2023-02-28T08:31:39;21.10;52.00
59973;DHT22;55298;-36.624;-64.282;2023-02-28T08:34:08;21.10;52.40
59973;DHT22;55298;-36.624;-64.282;2023-02-28T08:36:37;21.10;52.20
59973;DHT22;55298;-36.624;-64.282;2023-02-28T08:39:05;21.20;52.90
59973;DHT22;55298;-36.624;-64.282;2023-02-28T08:41:34;21.00;53.20
59973;DHT22;55298;-36.624;-64.282;2023-02-28T08:44:01;20.90;53.30
59973;DHT22;55298;-36.624;-64.282;2023-02-28T08:46:29;21.00;53.50
59973;DHT22;55298;-36.624;-64.282;2023-02-28T08:48:57;21.00;53.60
59973;DHT22;55298;-36.624;-64.282;2023-02-28T08:51:28;21.00;53.70
59973;DHT22;55298;-36.624;-64.282;2023-02-28T08:53:59;21.00;53.90
59973;DHT22;55298;-36.624;-64.282;2023-02-28T08:56:28;20.90;54.30
59973;DHT22;55298;-36.624;-64.282;2023-02-28T08:58:57;20.90;54.50
59973;DHT22;55298;-36.624;-64.282;2023-02-28T09:01:27;20.80;54.70
59973;DHT22;55298;-36.624;-64.282;2023-02-28T09:03:57;20.80;55.10
59973;DHT22;55298;-36.624;-64.282;2023-02-28T09:06:28;20.80;55.20
59973;DHT22;55298;-36.624;-64.282;2023-02-28T09:08:58;20.80;55.50
59973;DHT22;55298;-36.624;-64.282;2023-02-28T09:11:27;20.80;55.30
59973;DHT22;55298;-36.624;-64.282;2023-02-28T09:13:55;20.80;55.80
59973;DHT22;55298;-36.624;-64.282;2023-02-28T09:16:22;20.80;55.50
59973;DHT22;55298;-36.624;-64.282;2023-02-28T09:18:50;20.80;55.80
59973;DHT22;55298;-36.624;-64.282;2023-02-28T09:21:19;20.70;56.20
59973;DHT22;55298;-36.624;-64.282;2023-02-28T09:23:48;20.70;56.30
59973;DHT22;55298;-36.624;-64.282;2023-02-28T09:26:20;20.60;56.70
59973;DHT22;55298;-36.624;-64.282;2023-02-28T09:28:49;20.70;57.00
59973;DHT22;55298;-36.624;-64.282;2023-02-28T09:31:20;20.60;57.40
59973;DHT22;55298;-36.624;-64.282;2023-02-28T09:33:49;20.60;57.50
59973;DHT22;55298;-36.624;-64.282;2023-02-28T09:36:18;20.60;57.90
59973;DHT22;55298;-36.624;-64.282;2023-02-28T09:38:46;20.50;58.30
59973;DHT22;55298;-36.624;-64.282;2023-02-28T09:41:19;20.40;58.50
59973;DHT22;55298;-36.624;-64.282;2023-02-28T09:43:52;20.30;58.70
59973;DHT22;55298;-36.624;-64.282;2023-02-28T09:46:32;20.30;58.80
59973;DHT22;55298;-36.624;-64.282;2023-02-28T09:49:05;20.30;58.70
59973;DHT22;55298;-36.624;-64.282;2023-02-28T09:54:32;20.30;59.30
59973;DHT22;55298;-36.624;-64.282;2023-02-28T09:59:47;20.40;59.20
59973;DHT22;55298;-36.624;-64.282;2023-02-28T10:02:39;20.40;59.60
59973;DHT22;55298;-36.624;-64.282;2023-02-28T10:05:20;20.50;59.10
59973;DHT22;55298;-36.624;-64.282;2023-02-28T10:10:53;20.60;59.60
59973;DHT22;55298;-36.624;-64.282;2023-02-28T10:16:14;20.60;59.40
59973;DHT22;55298;-36.624;-64.282;2023-02-28T10:18:50;20.60;59.60
59973;DHT22;55298;-36.624;-64.282;2023-02-28T10:21:38;20.60;60.20
59973;DHT22;55298;-36.624;-64.282;2023-02-28T10:27:28;20.70;59.40
59973;DHT22;55298;-36.624;-64.282;2023-02-28T10:29:59;20.70;58.50
59973;DHT22;55298;-36.624;-64.282;2023-02-28T10:32:30;20.80;60.10
59973;DHT22;55298;-36.624;-64.282;2023-02-28T10:35:01;20.90;60.40
59973;DHT22;55298;-36.624;-64.282;2023-02-28T10:37:33;21.00;60.10
59973;DHT22;55298;-36.624;-64.282;2023-02-28T10:40:06;21.20;60.50
59973;DHT22;55298;-36.624;-64.282;2023-02-28T10:45:38;21.50;60.80
59973;DHT22;55298;-36.624;-64.282;2023-02-28T10:48:32;21.50;60.20
59973;DHT22;55298;-36.624;-64.282;2023-02-28T10:51:07;21.70;59.90
59973;DHT22;55298;-36.624;-64.282;2023-02-28T10:53:50;21.80;60.30
59973;DHT22;55298;-36.624;-64.282;2023-02-28T10:56:21;21.90;60.90
59973;DHT22;55298;-36.624;-64.282;2023-02-28T11:01:45;22.30;60.80
59973;DHT22;55298;-36.624;-64.282;2023-02-28T11:04:34;23.30;59.20
59973;DHT22;55298;-36.624;-64.282;2023-02-28T11:07:17;24.30;56.40
59973;DHT22;55298;-36.624;-64.282;2023-02-28T11:09:50;25.30;54.00
59973;DHT22;55298;-36.624;-64.282;2023-02-28T11:12:36;26.20;52.00
59973;DHT22;55298;-36.624;-64.282;2023-02-28T11:15:28;26.80;50.60
59973;DHT22;55298;-36.624;-64.282;2023-02-28T11:18:22;27.70;49.00
59973;DHT22;55298;-36.624;-64.282;2023-02-28T11:20:53;28.20;47.20
59973;DHT22;55298;-36.624;-64.282;2023-02-28T11:23:25;28.50;46.60
59973;DHT22;55298;-36.624;-64.282;2023-02-28T11:25:59;29.00;46.10
59973;DHT22;55298;-36.624;-64.282;2023-02-28T11:28:29;29.50;45.10
59973;DHT22;55298;-36.624;-64.282;2023-02-28T11:31:16;29.50;45.10
59973;DHT22;55298;-36.624;-64.282;2023-02-28T11:33:54;29.80;44.60
59973;DHT22;55298;-36.624;-64.282;2023-02-28T11:36:27;30.00;44.70
59973;DHT22;55298;-36.624;-64.282;2023-02-28T11:39:10;30.30;43.90
59973;DHT22;55298;-36.624;-64.282;2023-02-28T11:42:11;30.30;43.80
59973;DHT22;55298;-36.624;-64.282;2023-02-28T11:47:38;31.30;42.70
59973;DHT22;55298;-36.624;-64.282;2023-02-28T11:50:33;31.60;41.90
59973;DHT22;55298;-36.624;-64.282;2023-02-28T11:53:39;31.40;42.00
59973;DHT22;55298;-36.624;-64.282;2023-02-28T11:56:39;31.90;42.00
59973;DHT22;55298;-36.624;-64.282;2023-02-28T11:59:35;32.20;41.50
59973;DHT22;55298;-36.624;-64.282;2023-02-28T12:05:41;32.70;41.30
59973;DHT22;55298;-36.624;-64.282;2023-02-28T12:08:43;32.90;40.00
59973;DHT22;55298;-36.624;-64.282;2023-02-28T12:11:38;33.10;40.20
59973;DHT22;55298;-36.624;-64.282;2023-02-28T12:14:36;33.20;39.20
59973;DHT22;55298;-36.624;-64.282;2023-02-28T12:20:15;33.90;38.00
59973;DHT22;55298;-36.624;-64.282;2023-02-28T12:23:11;34.40;37.30
59973;DHT22;55298;-36.624;-64.282;2023-02-28T12:26:07;34.60;37.10
59973;DHT22;55298;-36.624;-64.282;2023-02-28T12:28:44;35.00;36.80
59973;DHT22;55298;-36.624;-64.282;2023-02-28T12:31:21;35.40;35.70
59973;DHT22;55298;-36.624;-64.282;2023-02-28T12:33:55;35.60;35.60
59973;DHT22;55298;-36.624;-64.282;2023-02-28T12:36:24;35.60;35.40
59973;DHT22;55298;-36.624;-64.282;2023-02-28T12:39:03;35.40;35.00
59973;DHT22;55298;-36.624;-64.282;2023-02-28T12:41:48;35.50;35.60
59973;DHT22;55298;-36.624;-64.282;2023-02-28T12:44:39;35.80;35.10
59973;DHT22;55298;-36.624;-64.282;2023-02-28T12:47:16;35.90;34.70
59973;DHT22;55298;-36.624;-64.282;2023-02-28T12:49:58;35.90;34.70
59973;DHT22;55298;-36.624;-64.282;2023-02-28T12:53:03;36.20;34.20
59973;DHT22;55298;-36.624;-64.282;2023-02-28T12:55:58;36.50;34.40
59973;DHT22;55298;-36.624;-64.282;2023-02-28T12:58:37;36.60;34.20
59973;DHT22;55298;-36.624;-64.282;2023-02-28T13:01:24;36.40;33.10
59973;DHT22;55298;-36.624;-64.282;2023-02-28T13:07:10;37.30;34.20
59973;DHT22;55298;-36.624;-64.282;2023-02-28T13:09:54;38.10;33.40
59973;DHT22;55298;-36.624;-64.282;2023-02-28T13:12:24;38.60;31.70
59973;DHT22;55298;-36.624;-64.282;2023-02-28T13:15:07;38.60;31.40
59973;DHT22;55298;-36.624;-64.282;2023-02-28T13:17:41;38.60;30.40
59973;DHT22;55298;-36.624;-64.282;2023-02-28T13:20:19;38.20;30.20
59973;DHT22;55298;-36.624;-64.282;2023-02-28T13:31:13;39.80;30.80
59973;DHT22;55298;-36.624;-64.282;2023-02-28T13:34:13;40.50;28.00
59973;DHT22;55298;-36.624;-64.282;2023-02-28T13:36:41;40.60;27.70
59973;DHT22;55298;-36.624;-64.282;2023-02-28T13:42:36;40.60;26.60
59973;DHT22;55298;-36.624;-64.282;2023-02-28T13:45:26;40.50;27.00
59973;DHT22;55298;-36.624;-64.282;2023-02-28T13:47:59;40.70;27.00
59973;DHT22;55298;-36.624;-64.282;2023-02-28T13:50:42;40.80;27.30
59973;DHT22;55298;-36.624;-64.282;2023-02-28T13:53:34;41.00;25.70
59973;DHT22;55298;-36.624;-64.282;2023-02-28T13:56:26;41.00;24.60
59973;DHT22;55298;-36.624;-64.282;2023-02-28T14:02:01;41.00;25.00
59973;DHT22;55298;-36.624;-64.282;2023-02-28T14:07:38;40.80;24.40
59973;DHT22;55298;-36.624;-64.282;2023-02-28T14:11:02;41.00;24.50
59973;DHT22;55298;-36.624;-64.282;2023-02-28T14:16:08;40.50;24.20
59973;DHT22;55298;-36.624;-64.282;2023-02-28T14:21:24;40.70;25.20
59973;DHT22;55298;-36.624;-64.282;2023-02-28T14:27:04;41.00;24.60
59973;DHT22;55298;-36.624;-64.282;2023-02-28T14:41:18;43.50;23.60
59973;DHT22;55298;-36.624;-64.282;2023-02-28T14:43:56;43.90;23.30
59973;DHT22;55298;-36.624;-64.282;2023-02-28T14:46:38;44.30;23.50
59973;DHT22;55298;-36.624;-64.282;2023-02-28T14:49:26;44.20;22.40
59973;DHT22;55298;-36.624;-64.282;2023-02-28T14:54:41;43.70;22.20
59973;DHT22;55298;-36.624;-64.282;2023-02-28T14:57:26;43.20;22.00
59973;DHT22;55298;-36.624;-64.282;2023-02-28T15:00:14;42.80;22.30
59973;DHT22;55298;-36.624;-64.282;2023-02-28T15:02:44;42.90;23.50
59973;DHT22;55298;-36.624;-64.282;2023-02-28T15:05:29;43.10;22.50
59973;DHT22;55298;-36.624;-64.282;2023-02-28T15:08:10;43.30;22.20
59973;DHT22;55298;-36.624;-64.282;2023-02-28T15:10:51;43.40;22.50
59973;DHT22;55298;-36.624;-64.282;2023-02-28T15:13:23;43.50;22.50
59973;DHT22;55298;-36.624;-64.282;2023-02-28T15:16:04;43.60;21.40
59973;DHT22;55298;-36.624;-64.282;2023-02-28T15:21:25;42.90;21.70
59973;DHT22;55298;-36.624;-64.282;2023-02-28T15:24:00;42.80;21.90
59973;DHT22;55298;-36.624;-64.282;2023-02-28T15:26:32;42.90;22.20
59973;DHT22;55298;-36.624;-64.282;2023-02-28T15:29:05;43.10;22.10
59973;DHT22;55298;-36.624;-64.282;2023-02-28T15:31:45;43.20;21.60
59973;DHT22;55298;-36.624;-64.282;2023-02-28T15:34:20;42.90;22.00
59973;DHT22;55298;-36.624;-64.282;2023-02-28T15:36:49;43.20;22.00
59973;DHT22;55298;-36.624;-64.282;2023-02-28T15:39:23;43.50;21.60
59973;DHT22;55298;-36.624;-64.282;2023-02-28T15:42:22;43.30;21.60
59973;DHT22;55298;-36.624;-64.282;2023-02-28T15:44:50;43.30;21.20
59973;DHT22;55298;-36.624;-64.282;2023-02-28T15:47:21;43.00;21.30
59973;DHT22;55298;-36.624;-64.282;2023-02-28T15:49:53;42.60;21.40
59973;DHT22;55298;-36.624;-64.282;2023-02-28T15:52:29;42.20;21.90
59973;DHT22;55298;-36.624;-64.282;2023-02-28T15:55:20;42.00;22.30
59973;DHT22;55298;-36.624;-64.282;2023-02-28T15:57:51;41.80;22.20
59973;DHT22;55298;-36.624;-64.282;2023-02-28T16:00:22;41.50;22.70
59973;DHT22;55298;-36.624;-64.282;2023-02-28T16:02:52;40.90;22.70
59973;DHT22;55298;-36.624;-64.282;2023-02-28T16:05:26;40.30;23.20
59973;DHT22;55298;-36.624;-64.282;2023-02-28T16:07:59;39.90;23.80
59973;DHT22;55298;-36.624;-64.282;2023-02-28T16:10:30;39.60;24.00
59973;DHT22;55298;-36.624;-64.282;2023-02-28T16:12:58;39.50;24.20
59973;DHT22;55298;-36.624;-64.282;2023-02-28T16:15:29;39.10;24.00
59973;DHT22;55298;-36.624;-64.282;2023-02-28T16:17:58;39.00;24.30
59973;DHT22;55298;-36.624;-64.282;2023-02-28T16:20:30;38.90;24.70
59973;DHT22;55298;-36.624;-64.282;2023-02-28T16:22:58;39.00;24.80
59973;DHT22;55298;-36.624;-64.282;2023-02-28T16:25:36;39.10;24.90
59973;DHT22;55298;-36.624;-64.282;2023-02-28T16:28:12;39.20;24.70
59973;DHT22;55298;-36.624;-64.282;2023-02-28T16:30:43;39.20;24.40
59973;DHT22;55298;-36.624;-64.282;2023-02-28T16:33:11;39.20;24.20
59973;DHT22;55298;-36.624;-64.282;2023-02-28T16:35:39;39.10;23.80
59973;DHT22;55298;-36.624;-64.282;2023-02-28T16:38:06;39.00;23.60
59973;DHT22;55298;-36.624;-64.282;2023-02-28T16:40:38;39.10;24.10
59973;DHT22;55298;-36.624;-64.282;2023-02-28T16:43:18;39.20;24.30
59973;DHT22;55298;-36.624;-64.282;2023-02-28T16:45:56;39.40;23.70
59973;DHT22;55298;-36.624;-64.282;2023-02-28T16:48:25;39.20;23.40
59973;DHT22;55298;-36.624;-64.282;2023-02-28T16:50:53;39.10;23.60
59973;DHT22;55298;-36.624;-64.282;2023-02-28T16:53:20;39.20;23.60
59973;DHT22;55298;-36.624;-64.282;2023-02-28T16:55:48;39.20;23.40